Time,TemperatureF,DewpointF,PressureIn,WindDirection,WindDirectionDegrees,WindSpeedMPH,WindSpeedGustMPH,Humidity,HourlyPrecipIn,Conditions,Clouds,dailyrainin,SoftwareType,DateUTC
2013-07-15 00:00:00,63.4,41.1,30.00,NE,51,0.0,0.0,44,0.00,,,0.00,Wunderground v.1.15,2013-07-15 07:00:00,
2013-07-15 00:10:00,63.1,41.4,30.00,NE,51,0.0,0.0,45,0.00,,,0.00,Wunderground v.1.15,2013-07-15 07:10:00,
2013-07-15 00:20:00,62.2,41.7,30.00,NE,51,0.0,0.0,47,0.00,,,0.00,Wunderground v.1.15,2013-07-15 07:20:00,
2013-07-15 00:30:00,61.8,40.8,30.00,NE,51,0.0,0.0,46,0.00,,,0.00,Wunderground v.1.15,2013-07-15 07:30:00,
2013-07-15 00:40:00,62.4,40.8,30.00,NE,51,0.0,3.0,45,0.00,,,0.00,Wunderground v.1.15,2013-07-15 07:40:00,
2013-07-15 00:45:00,62.7,41.0,30.00,NE,51,0.0,3.0,45,0.00,,,0.00,Wunderground v.1.15,2013-07-15 07:45:00,
2013-07-15 00:55:00,63.4,41.1,30.00,NE,51,0.0,3.0,44,0.00,,,0.00,Wunderground v.1.15,2013-07-15 07:55:00,
2013-07-15 01:00:00,63.3,41.0,30.00,NE,51,0.0,0.0,44,0.00,,,0.00,Wunderground v.1.15,2013-07-15 08:00:00,
2013-07-15 01:10:00,63.2,40.9,30.00,East,82,0.0,3.0,44,0.00,,,0.00,Wunderground v.1.15,2013-07-15 08:10:00,
2013-07-15 01:20:00,63.5,40.6,30.00,East,82,0.0,3.0,43,0.00,,,0.00,Wunderground v.1.15,2013-07-15 08:20:00,
2013-07-15 01:25:00,63.6,40.7,30.00,East,82,1.0,3.0,43,0.00,,,0.00,Wunderground v.1.15,2013-07-15 08:25:00,
2013-07-15 01:30:00,63.6,40.7,30.00,East,82,0.0,0.0,43,0.00,,,0.00,Wunderground v.1.15,2013-07-15 08:30:00,
2013-07-15 01:40:00,63.3,41.0,30.00,NE,37,0.0,4.0,44,0.00,,,0.00,Wunderground v.1.15,2013-07-15 08:40:00,
2013-07-15 01:50:00,63.1,41.4,30.00,ENE,63,1.0,1.0,45,0.00,,,0.00,Wunderground v.1.15,2013-07-15 08:50:00,
2013-07-15 02:00:00,62.8,42.3,30.00,ENE,63,0.0,0.0,47,0.00,,,0.00,Wunderground v.1.15,2013-07-15 09:00:00,
2013-07-15 02:10:00,62.5,42.5,30.00,NE,47,0.0,5.0,48,0.00,,,0.00,Wunderground v.1.15,2013-07-15 09:10:00,
2013-07-15 02:15:00,62.3,42.9,30.00,NE,47,0.0,5.0,49,0.00,,,0.00,Wunderground v.1.15,2013-07-15 09:15:00,
2013-07-15 02:25:00,62.0,43.1,30.00,NE,47,0.0,5.0,50,0.00,,,0.00,Wunderground v.1.15,2013-07-15 09:25:00,
2013-07-15 02:30:00,61.8,44.0,30.00,NE,48,0.0,0.0,52,0.00,,,0.00,Wunderground v.1.15,2013-07-15 09:30:00,
2013-07-15 02:40:00,61.5,44.2,30.00,NE,48,0.0,4.0,53,0.00,,,0.00,Wunderground v.1.15,2013-07-15 09:40:00,
2013-07-15 02:50:00,61.2,44.4,30.00,NE,34,1.0,4.0,54,0.00,,,0.00,Wunderground v.1.15,2013-07-15 09:50:00,
2013-07-15 02:55:00,61.0,44.7,30.00,NE,34,0.0,4.0,55,0.00,,,0.00,Wunderground v.1.15,2013-07-15 09:55:00,
2013-07-15 03:00:00,60.8,45.0,30.00,NNE,30,0.0,2.0,56,0.00,,,0.00,Wunderground v.1.15,2013-07-15 10:00:00,
2013-07-15 03:10:00,60.4,46.0,30.00,NW,308,0.0,5.0,59,0.00,,,0.00,Wunderground v.1.15,2013-07-15 10:10:00,
2013-07-15 03:20:00,60.0,46.5,30.00,NNE,22,1.0,1.0,61,0.00,,,0.00,Wunderground v.1.15,2013-07-15 10:20:00,
2013-07-15 03:30:00,59.7,47.1,29.99,NNE,26,0.0,0.0,63,0.00,,,0.00,Wunderground v.1.15,2013-07-15 10:30:00,
2013-07-15 03:40:00,59.5,47.7,29.99,NNE,26,0.0,5.0,65,0.00,,,0.00,Wunderground v.1.15,2013-07-15 10:40:00,
2013-07-15 03:50:00,59.2,48.2,29.99,NNE,26,0.0,5.0,67,0.00,,,0.00,Wunderground v.1.15,2013-07-15 10:50:00,
2013-07-15 04:00:00,59.0,48.4,29.99,NNE,27,0.0,0.0,68,0.00,,,0.00,Wunderground v.1.15,2013-07-15 11:00:00,
2013-07-15 04:10:00,58.9,48.7,29.99,NNE,27,0.0,2.0,69,0.00,,,0.00,Wunderground v.1.15,2013-07-15 11:10:00,
2013-07-15 04:20:00,58.7,48.9,29.99,NNE,27,0.0,2.0,70,0.00,,,0.00,Wunderground v.1.15,2013-07-15 11:20:00,
2013-07-15 04:30:00,58.4,49.0,29.99,NNE,27,0.0,0.0,71,0.00,,,0.00,Wunderground v.1.15,2013-07-15 11:30:00,
2013-07-15 04:40:00,58.2,49.2,29.99,NNE,27,0.0,3.0,72,0.00,,,0.00,Wunderground v.1.15,2013-07-15 11:40:00,
2013-07-15 04:50:00,57.9,48.9,29.99,NNE,27,0.0,3.0,72,0.00,,,0.00,Wunderground v.1.15,2013-07-15 11:50:00,
2013-07-15 05:00:00,57.3,48.7,29.99,NNE,27,0.0,0.0,73,0.00,,,0.00,Wunderground v.1.15,2013-07-15 12:00:00,
2013-07-15 05:10:00,56.1,47.6,29.99,NNE,27,0.0,2.0,73,0.00,,,0.00,Wunderground v.1.15,2013-07-15 12:10:00,
2013-07-15 05:20:00,55.3,47.2,30.00,NNE,27,0.0,2.0,74,0.00,,,0.00,Wunderground v.1.15,2013-07-15 12:20:00,
2013-07-15 05:25:00,55.0,46.9,30.00,NNE,27,0.0,2.0,74,0.00,,,0.00,Wunderground v.1.15,2013-07-15 12:25:00,
2013-07-15 05:30:00,54.7,46.9,30.00,NNE,27,0.0,0.0,75,0.00,,,0.00,Wunderground v.1.15,2013-07-15 12:30:00,
2013-07-15 05:40:00,54.3,46.9,29.99,NNE,27,0.0,1.0,76,0.00,,,0.00,Wunderground v.1.15,2013-07-15 12:40:00,
2013-07-15 05:50:00,54.4,47.7,30.00,NNE,27,0.0,1.0,78,0.00,,,0.00,Wunderground v.1.15,2013-07-15 12:50:00,
2013-07-15 06:00:00,54.8,47.4,30.00,NNE,27,0.0,0.0,76,0.00,,,0.00,Wunderground v.1.15,2013-07-15 13:00:00,
2013-07-15 06:10:00,55.6,47.4,30.00,NNE,27,0.0,0.0,74,0.00,,,0.00,Wunderground v.1.15,2013-07-15 13:10:00,
2013-07-15 06:15:00,56.1,47.9,30.00,NNE,27,0.0,0.0,74,0.00,,,0.00,Wunderground v.1.15,2013-07-15 13:15:00,
2013-07-15 06:25:00,56.8,48.2,30.00,NNE,27,0.0,0.0,73,0.00,,,0.00,Wunderground v.1.15,2013-07-15 13:25:00,
2013-07-15 06:30:00,57.0,48.4,30.00,NNE,27,0.0,0.0,73,0.00,,,0.00,Wunderground v.1.15,2013-07-15 13:30:00,
2013-07-15 06:40:00,57.8,48.5,30.00,NNE,27,0.0,1.0,71,0.00,,,0.00,Wunderground v.1.15,2013-07-15 13:40:00,
2013-07-15 06:50:00,58.7,48.6,30.00,NNE,27,0.0,1.0,69,0.00,,,0.00,Wunderground v.1.15,2013-07-15 13:50:00,
2013-07-15 07:00:00,59.4,49.2,30.00,NNE,29,0.0,0.0,69,0.00,,,0.00,Wunderground v.1.15,2013-07-15 14:00:00,
2013-07-15 07:05:00,59.6,49.4,30.00,NNE,29,0.0,0.0,69,0.00,,,0.00,Wunderground v.1.15,2013-07-15 14:05:00,
2013-07-15 07:15:00,60.0,49.4,30.00,ENE,61,0.0,0.0,68,0.00,,,0.00,Wunderground v.1.15,2013-07-15 14:15:00,
2013-07-15 07:25:00,60.0,49.8,30.00,East,90,1.0,4.0,69,0.00,,,0.00,Wunderground v.1.15,2013-07-15 14:25:00,
2013-07-15 07:30:00,60.1,50.3,30.00,East,90,1.0,1.0,70,0.00,,,0.00,Wunderground v.1.15,2013-07-15 14:30:00,
2013-07-15 07:40:00,60.6,50.8,30.00,East,94,1.0,4.0,70,0.00,,,0.00,Wunderground v.1.15,2013-07-15 14:40:00,
2013-07-15 07:50:00,61.0,51.1,29.99,ENE,76,2.0,2.0,70,0.00,,,0.00,Wunderground v.1.15,2013-07-15 14:50:00,
2013-07-15 08:00:00,61.7,51.4,29.99,ENE,64,2.0,2.0,69,0.00,,,0.00,Wunderground v.1.15,2013-07-15 15:00:00,
2013-07-15 08:10:00,62.3,52.0,29.99,ENE,67,2.0,2.0,69,0.00,,,0.00,Wunderground v.1.15,2013-07-15 15:10:00,
2013-07-15 08:20:00,62.9,51.4,29.99,ENE,67,2.0,2.0,66,0.00,,,0.00,Wunderground v.1.15,2013-07-15 15:20:00,
2013-07-15 08:30:00,63.8,51.8,29.99,ENE,77,2.0,2.0,65,0.00,,,0.00,Wunderground v.1.15,2013-07-15 15:30:00,
2013-07-15 08:40:00,64.3,51.4,29.98,NNW,346,2.0,7.0,63,0.00,,,0.00,Wunderground v.1.15,2013-07-15 15:40:00,
2013-07-15 08:55:00,64.6,51.3,29.98,NE,42,3.0,7.0,62,0.00,,,0.00,Wunderground v.1.15,2013-07-15 15:55:00,
2013-07-15 09:00:00,64.9,51.6,29.98,East,80,4.0,4.0,62,0.00,,,0.00,Wunderground v.1.15,2013-07-15 16:00:00,
2013-07-15 09:10:00,65.3,51.5,29.98,ENE,57,3.0,8.0,61,0.00,,,0.00,Wunderground v.1.15,2013-07-15 16:10:00,
2013-07-15 09:20:00,65.8,51.1,29.98,NNE,32,4.0,4.0,59,0.00,,,0.00,Wunderground v.1.15,2013-07-15 16:20:00,
2013-07-15 09:30:00,66.1,51.8,29.98,ENE,58,4.0,4.0,60,0.00,,,0.00,Wunderground v.1.15,2013-07-15 16:30:00,
2013-07-15 09:40:00,66.5,51.7,29.98,NNE,17,3.0,8.0,59,0.00,,,0.00,Wunderground v.1.15,2013-07-15 16:40:00,
2013-07-15 09:50:00,67.4,52.6,29.97,NW,314,3.0,3.0,59,0.00,,,0.00,Wunderground v.1.15,2013-07-15 16:50:00,
2013-07-15 10:00:00,67.7,52.9,29.97,NNE,32,4.0,4.0,59,0.00,,,0.00,Wunderground v.1.15,2013-07-15 17:00:00,
2013-07-15 10:10:00,68.4,52.6,29.97,East,84,3.0,12.0,57,0.00,,,0.00,Wunderground v.1.15,2013-07-15 17:10:00,
2013-07-15 10:20:00,68.7,52.4,29.96,East,92,3.0,12.0,56,0.00,,,0.00,Wunderground v.1.15,2013-07-15 17:20:00,
2013-07-15 10:30:00,69.3,51.9,29.96,NE,53,4.0,4.0,54,0.00,,,0.00,Wunderground v.1.15,2013-07-15 17:30:00,
2013-07-15 10:40:00,69.9,52.0,29.96,North,355,4.0,9.0,53,0.00,,,0.00,Wunderground v.1.15,2013-07-15 17:40:00,
2013-07-15 10:45:00,69.9,52.0,29.96,East,89,3.0,9.0,53,0.00,,,0.00,Wunderground v.1.15,2013-07-15 17:45:00,
2013-07-15 10:55:00,70.9,51.9,29.96,NW,312,3.0,9.0,51,0.00,,,0.00,Wunderground v.1.15,2013-07-15 17:55:00,
2013-07-15 11:00:00,70.8,52.8,29.95,NE,42,3.0,4.0,53,0.00,,,0.00,Wunderground v.1.15,2013-07-15 18:00:00,
2013-07-15 11:10:00,71.1,52.0,29.95,ENE,57,3.0,3.0,51,0.00,,,0.00,Wunderground v.1.15,2013-07-15 18:10:00,
2013-07-15 11:20:00,71.8,52.7,29.94,West,281,3.0,8.0,51,0.00,,,0.00,Wunderground v.1.15,2013-07-15 18:20:00,
2013-07-15 11:30:00,72.6,52.3,29.94,NNE,33,2.0,2.0,49,0.00,,,0.00,Wunderground v.1.15,2013-07-15 18:30:00,
2013-07-15 11:40:00,73.5,53.2,29.93,WNW,299,3.0,3.0,49,0.00,,,0.00,Wunderground v.1.15,2013-07-15 18:40:00,
2013-07-15 11:50:00,74.4,52.9,29.93,NE,50,3.0,8.0,47,0.00,,,0.00,Wunderground v.1.15,2013-07-15 18:50:00,
2013-07-15 12:00:00,74.9,52.7,29.93,NNE,24,4.0,4.0,46,0.00,,,0.00,Wunderground v.1.15,2013-07-15 19:00:00,
2013-07-15 12:10:00,75.3,53.1,29.92,ENE,69,4.0,8.0,46,0.00,,,0.00,Wunderground v.1.15,2013-07-15 19:10:00,
2013-07-15 12:20:00,76.0,53.1,29.92,NNE,32,3.0,3.0,45,0.00,,,0.00,Wunderground v.1.15,2013-07-15 19:20:00,
2013-07-15 12:25:00,76.3,52.8,29.92,WNW,302,3.0,6.0,44,0.00,,,0.00,Wunderground v.1.15,2013-07-15 19:25:00,
2013-07-15 12:30:00,76.4,52.9,29.92,NE,42,4.0,4.0,44,0.00,,,0.00,Wunderground v.1.15,2013-07-15 19:30:00,
2013-07-15 12:40:00,77.3,51.8,29.91,East,101,4.0,11.0,41,0.00,,,0.00,Wunderground v.1.15,2013-07-15 19:40:00,
2013-07-15 12:55:00,78.0,53.0,29.91,NE,53,5.0,11.0,42,0.00,,,0.00,Wunderground v.1.15,2013-07-15 19:55:00,
2013-07-15 13:10:00,78.7,53.0,29.90,NE,47,4.0,4.0,41,0.00,,,0.00,Wunderground v.1.15,2013-07-15 20:10:00,
2013-07-15 13:20:00,79.6,52.5,29.90,NE,38,4.0,4.0,39,0.00,,,0.00,Wunderground v.1.15,2013-07-15 20:20:00,
2013-07-15 13:30:00,79.8,54.0,29.90,NE,38,3.0,5.0,41,0.00,,,0.00,Wunderground v.1.15,2013-07-15 20:30:00,
2013-07-15 13:40:00,80.7,54.8,29.89,ENE,74,4.0,4.0,41,0.00,,,0.00,Wunderground v.1.15,2013-07-15 20:40:00,
2013-07-15 13:50:00,81.3,54.7,29.89,NE,37,3.0,12.0,40,0.00,,,0.00,Wunderground v.1.15,2013-07-15 20:50:00,
2013-07-15 14:00:00,82.1,54.0,29.88,NE,52,4.0,4.0,38,0.00,,,0.00,Wunderground v.1.15,2013-07-15 21:00:00,
2013-07-15 14:10:00,82.5,53.6,29.88,NNE,29,4.0,12.0,37,0.00,,,0.00,Wunderground v.1.15,2013-07-15 21:10:00,
2013-07-15 14:15:00,82.7,55.2,29.88,NE,47,4.0,12.0,39,0.00,,,0.00,Wunderground v.1.15,2013-07-15 21:15:00,
2013-07-15 14:25:00,82.6,53.7,29.87,ENE,69,4.0,12.0,37,0.00,,,0.00,Wunderground v.1.15,2013-07-15 21:25:00,
2013-07-15 14:30:00,82.8,53.9,29.87,North,5,4.0,4.0,37,0.00,,,0.00,Wunderground v.1.15,2013-07-15 21:30:00,
2013-07-15 14:40:00,83.7,53.9,29.86,NNW,333,3.0,13.0,36,0.00,,,0.00,Wunderground v.1.15,2013-07-15 21:40:00,
2013-07-15 14:55:00,84.1,52.7,29.86,ENE,71,4.0,13.0,34,0.00,,,0.00,Wunderground v.1.15,2013-07-15 21:55:00,
2013-07-15 15:05:00,84.5,53.0,29.86,ENE,69,4.0,14.0,34,0.00,,,0.00,Wunderground v.1.15,2013-07-15 22:05:00,
2013-07-15 15:10:00,84.4,52.1,29.85,NNW,340,4.0,4.0,33,0.00,,,0.00,Wunderground v.1.15,2013-07-15 22:10:00,
2013-07-15 15:20:00,84.6,53.1,29.85,ENE,75,4.0,14.0,34,0.00,,,0.00,Wunderground v.1.15,2013-07-15 22:20:00,
2013-07-15 15:30:00,85.0,53.5,29.84,NE,54,4.0,7.0,34,0.00,,,0.00,Wunderground v.1.15,2013-07-15 22:30:00,
2013-07-15 15:45:00,85.6,52.4,29.84,West,273,4.0,14.0,32,0.00,,,0.00,Wunderground v.1.15,2013-07-15 22:45:00,
2013-07-15 15:55:00,86.1,53.6,29.84,ENE,59,3.0,14.0,33,0.00,,,0.00,Wunderground v.1.15,2013-07-15 22:55:00,
2013-07-15 16:00:00,86.2,53.7,29.83,NE,40,3.0,5.0,33,0.00,,,0.00,Wunderground v.1.15,2013-07-15 23:00:00,
2013-07-15 16:10:00,86.5,53.1,29.83,NE,49,4.0,14.0,32,0.00,,,0.00,Wunderground v.1.15,2013-07-15 23:10:00,
2013-07-15 16:15:00,86.2,53.7,29.83,ENE,74,4.0,14.0,33,0.00,,,0.00,Wunderground v.1.15,2013-07-15 23:15:00,
2013-07-15 16:20:00,86.2,53.7,29.82,NW,325,4.0,4.0,33,0.00,,,0.00,Wunderground v.1.15,2013-07-15 23:20:00,
2013-07-15 16:30:00,87.0,53.6,29.82,NE,42,3.0,3.0,32,0.00,,,0.00,Wunderground v.1.15,2013-07-15 23:30:00,
2013-07-15 16:40:00,86.7,53.3,29.82,NE,54,4.0,4.0,32,0.00,,,0.00,Wunderground v.1.15,2013-07-15 23:40:00,
2013-07-15 16:45:00,86.8,53.4,29.82,NE,49,3.0,5.0,32,0.00,,,0.00,Wunderground v.1.15,2013-07-15 23:45:00,
2013-07-15 16:55:00,86.8,51.6,29.81,NW,325,4.0,11.0,30,0.00,,,0.00,Wunderground v.1.15,2013-07-15 23:55:00,
2013-07-15 17:00:00,87.0,53.6,29.81,ENE,75,4.0,4.0,32,0.00,,,0.00,Wunderground v.1.15,2013-07-16 00:00:00,
2013-07-15 17:15:00,87.4,53.1,29.80,North,360,3.0,11.0,31,0.00,,,0.00,Wunderground v.1.15,2013-07-16 00:15:00,
2013-07-15 17:25:00,87.4,53.9,29.80,NE,52,3.0,11.0,32,0.00,,,0.00,Wunderground v.1.15,2013-07-16 00:25:00,
2013-07-15 17:30:00,87.5,53.1,29.80,NE,51,2.0,4.0,31,0.00,,,0.00,Wunderground v.1.15,2013-07-16 00:30:00,
2013-07-15 17:40:00,86.9,53.5,29.79,ENE,59,4.0,4.0,32,0.00,,,0.00,Wunderground v.1.15,2013-07-16 00:40:00,
2013-07-15 17:50:00,87.0,53.6,29.79,ENE,62,4.0,4.0,32,0.00,,,0.00,Wunderground v.1.15,2013-07-16 00:50:00,
2013-07-15 18:00:00,87.1,53.7,29.79,ENE,78,2.0,4.0,32,0.00,,,0.00,Wunderground v.1.15,2013-07-16 01:00:00,
2013-07-15 18:10:00,86.8,52.5,29.79,ENE,60,4.0,10.0,31,0.00,,,0.00,Wunderground v.1.15,2013-07-16 01:10:00,
2013-07-15 18:20:00,86.6,51.5,29.79,ENE,69,3.0,10.0,30,0.00,,,0.00,Wunderground v.1.15,2013-07-16 01:20:00,
2013-07-15 18:30:00,86.3,53.0,29.78,ENE,63,3.0,3.0,32,0.00,,,0.00,Wunderground v.1.15,2013-07-16 01:30:00,
2013-07-15 18:45:00,86.8,51.6,29.78,West,269,2.0,13.0,30,0.00,,,0.00,Wunderground v.1.15,2013-07-16 01:45:00,
2013-07-15 18:50:00,86.8,52.5,29.78,East,97,2.0,13.0,31,0.00,,,0.00,Wunderground v.1.15,2013-07-16 01:50:00,
2013-07-15 19:00:00,86.3,53.0,29.78,NNE,17,3.0,4.0,32,0.00,,,0.00,Wunderground v.1.15,2013-07-16 02:00:00,
2013-07-15 19:10:00,85.6,53.2,29.78,ENE,64,3.0,11.0,33,0.00,,,0.00,Wunderground v.1.15,2013-07-16 02:10:00,
2013-07-15 19:20:00,85.2,53.7,29.78,ENE,67,2.0,11.0,34,0.00,,,0.00,Wunderground v.1.15,2013-07-16 02:20:00,
2013-07-15 19:25:00,85.1,53.6,29.78,NE,41,2.0,11.0,34,0.00,,,0.00,Wunderground v.1.15,2013-07-16 02:25:00,
2013-07-15 19:30:00,84.9,53.4,29.78,NE,39,2.0,2.0,34,0.00,,,0.00,Wunderground v.1.15,2013-07-16 02:30:00,
2013-07-15 19:45:00,83.7,53.1,29.78,NE,49,3.0,10.0,35,0.00,,,0.00,Wunderground v.1.15,2013-07-16 02:45:00,
2013-07-15 19:55:00,82.9,52.4,29.79,NNE,24,4.0,10.0,35,0.00,,,0.00,Wunderground v.1.15,2013-07-16 02:55:00,
2013-07-15 20:00:00,82.5,52.9,29.79,ENE,75,3.0,3.0,36,0.00,,,0.00,Wunderground v.1.15,2013-07-16 03:00:00,
2013-07-15 20:10:00,81.9,53.1,29.79,ENE,69,2.0,2.0,37,0.00,,,0.00,Wunderground v.1.15,2013-07-16 03:10:00,
2013-07-15 20:20:00,81.3,52.5,29.79,ENE,64,1.0,8.0,37,0.00,,,0.00,Wunderground v.1.15,2013-07-16 03:20:00,
2013-07-15 20:30:00,80.5,51.8,29.78,East,82,1.0,1.0,37,0.00,,,0.00,Wunderground v.1.15,2013-07-16 03:30:00,
2013-07-15 20:50:00,79.3,52.9,29.79,ENE,58,0.0,10.0,40,0.00,,,0.00,Wunderground v.1.15,2013-07-16 03:50:00,
2013-07-15 21:00:00,78.7,51.7,29.79,NE,47,1.0,1.0,39,0.00,,,0.00,Wunderground v.1.15,2013-07-16 04:00:00,
2013-07-15 21:05:00,78.5,51.5,29.79,ENE,67,1.0,6.0,39,0.00,,,0.00,Wunderground v.1.15,2013-07-16 04:05:00,
2013-07-15 21:15:00,77.9,51.6,29.79,ENE,67,0.0,6.0,40,0.00,,,0.00,Wunderground v.1.15,2013-07-16 04:15:00,
2013-07-15 21:25:00,77.2,51.7,29.80,ENE,67,0.0,6.0,41,0.00,,,0.00,Wunderground v.1.15,2013-07-16 04:25:00,
2013-07-15 21:30:00,76.8,51.3,29.80,ENE,67,0.0,0.0,41,0.00,,,0.00,Wunderground v.1.15,2013-07-16 04:30:00,
2013-07-15 21:35:00,76.5,50.4,29.80,ENE,67,0.0,6.0,40,0.00,,,0.00,Wunderground v.1.15,2013-07-16 04:35:00,
2013-07-15 21:45:00,76.0,50.6,29.80,ENE,67,0.0,6.0,41,0.00,,,0.00,Wunderground v.1.15,2013-07-16 04:45:00,
2013-07-15 21:55:00,75.6,50.2,29.80,ENE,66,0.0,6.0,41,0.00,,,0.00,Wunderground v.1.15,2013-07-16 04:55:00,
2013-07-15 22:00:00,75.4,49.4,29.80,ENE,66,0.0,0.0,40,0.00,,,0.00,Wunderground v.1.15,2013-07-16 05:00:00,
2013-07-15 22:10:00,75.2,49.2,29.80,ENE,66,0.0,2.0,40,0.00,,,0.00,Wunderground v.1.15,2013-07-16 05:10:00,
2013-07-15 22:20:00,74.7,49.4,29.80,ENE,66,0.0,2.0,41,0.00,,,0.00,Wunderground v.1.15,2013-07-16 05:20:00,
2013-07-15 22:30:00,74.1,49.5,29.80,ENE,66,0.0,0.0,42,0.00,,,0.00,Wunderground v.1.15,2013-07-16 05:30:00,
2013-07-15 22:40:00,73.7,49.2,29.80,ENE,66,0.0,3.0,42,0.00,,,0.00,Wunderground v.1.15,2013-07-16 05:40:00,
2013-07-15 22:50:00,73.2,49.4,29.80,ENE,66,0.0,3.0,43,0.00,,,0.00,Wunderground v.1.15,2013-07-16 05:50:00,
2013-07-15 23:00:00,72.7,49.5,29.80,ENE,66,0.0,0.0,44,0.00,,,0.00,Wunderground v.1.15,2013-07-16 06:00:00,
2013-07-15 23:10:00,72.0,50.1,29.80,ENE,66,0.0,2.0,46,0.00,,,0.00,Wunderground v.1.15,2013-07-16 06:10:00,
2013-07-15 23:20:00,70.8,50.1,29.80,ENE,66,0.0,2.0,48,0.00,,,0.00,Wunderground v.1.15,2013-07-16 06:20:00,
2013-07-15 23:30:00,69.7,50.2,29.80,ENE,66,0.0,0.0,50,0.00,,,0.00,Wunderground v.1.15,2013-07-16 06:30:00,
2013-07-15 23:40:00,69.0,50.1,29.80,ENE,66,0.0,1.0,51,0.00,,,0.00,Wunderground v.1.15,2013-07-16 06:40:00,
2013-07-15 23:50:00,68.5,49.7,29.80,ENE,66,0.0,1.0,51,0.00,,,0.00,Wunderground v.1.15,2013-07-16 06:50:00,